sensor_id;sensor_type;location;lat;lon;timestamp;pressure;altitude;pressure_sealevel;temperature;humidity
61676;BME280;47574;52.090;5.244;2023-02-19T00:00:50;101722.0;;;15.29;63.47
61676;BME280;47574;52.090;5.244;2023-02-19T00:02:26;101726.0;;;15.5;62.96
61676;BME280;47574;52.090;5.244;2023-02-19T00:05:41;101726.0;;;15.47;62.89
61676;BME280;47574;52.090;5.244;2023-02-19T00:07:19;101725.0;;;14.98;63.74
61676;BME280;47574;52.090;5.244;2023-02-19T00:08:56;101726.0;;;15.55;62.58
61676;BME280;47574;52.090;5.244;2023-02-19T00:12:09;101732.0;;;15.14;63.25
61676;BME280;47574;52.090;5.244;2023-02-19T00:13:48;101741.0;;;15.21;63.16
61676;BME280;47574;52.090;5.244;2023-02-19T00:15:25;101735.0;;;15.3;63.09
61676;BME280;47574;52.090;5.244;2023-02-19T00:17:02;101738.0;;;14.99;63.98
61676;BME280;47574;52.090;5.244;2023-02-19T00:20:15;101743.0;;;15.08;63.76
61676;BME280;47574;52.090;5.244;2023-02-19T00:21:52;101744.0;;;15.1;63.83
61676;BME280;47574;52.090;5.244;2023-02-19T00:23:29;101743.0;;;15.42;63.02
61676;BME280;47574;52.090;5.244;2023-02-19T00:26:43;101742.0;;;15.31;63.22
61676;BME280;47574;52.090;5.244;2023-02-19T00:28:21;101744.0;;;14.89;64.08
61676;BME280;47574;52.090;5.244;2023-02-19T00:29:58;101745.0;;;15.14;63.54
61676;BME280;47574;52.090;5.244;2023-02-19T00:33:11;101747.0;;;14.83;64.56
61676;BME280;47574;52.090;5.244;2023-02-19T00:34:48;101750.0;;;14.86;64.41
61676;BME280;47574;52.090;5.244;2023-02-19T00:36:25;101750.0;;;14.98;64.19
61676;BME280;47574;52.090;5.244;2023-02-19T00:38:02;101748.0;;;15.18;63.46
61676;BME280;47574;52.090;5.244;2023-02-19T00:41:20;101744.0;;;15.04;63.92
61676;BME280;47574;52.090;5.244;2023-02-19T00:42:57;101750.0;;;14.66;64.78
61676;BME280;47574;52.090;5.244;2023-02-19T00:44:33;101749.0;;;14.4;65.56
61676;BME280;47574;52.090;5.244;2023-02-19T00:47:46;101746.0;;;14.89;64.39
61676;BME280;47574;52.090;5.244;2023-02-19T00:49:23;101755.0;;;15.06;63.91
61676;BME280;47574;52.090;5.244;2023-02-19T00:50:59;101750.0;;;14.97;63.92
61676;BME280;47574;52.090;5.244;2023-02-19T00:52:36;101748.0;;;14.78;64.34
61676;BME280;47574;52.090;5.244;2023-02-19T00:55:49;101745.0;;;14.74;64.35
61676;BME280;47574;52.090;5.244;2023-02-19T00:57:25;101747.0;;;15.5;62.41
61676;BME280;47574;52.090;5.244;2023-02-19T00:59:03;101753.0;;;15.53;62.25
61676;BME280;47574;52.090;5.244;2023-02-19T01:02:16;101757.0;;;14.85;63.77
61676;BME280;47574;52.090;5.244;2023-02-19T01:03:53;101759.0;;;15.49;62.07
61676;BME280;47574;52.090;5.244;2023-02-19T01:05:30;101761.0;;;15.63;61.74
61676;BME280;47574;52.090;5.244;2023-02-19T01:08:43;101764.0;;;15.47;62.05
61676;BME280;47574;52.090;5.244;2023-02-19T01:10:20;101760.0;;;15.62;61.64
61676;BME280;47574;52.090;5.244;2023-02-19T01:11:56;101763.0;;;15.82;61.23
61676;BME280;47574;52.090;5.244;2023-02-19T01:13:34;101761.0;;;15.37;61.9
61676;BME280;47574;52.090;5.244;2023-02-19T01:16:47;101763.0;;;15.2;62.67
61676;BME280;47574;52.090;5.244;2023-02-19T01:18:23;101765.0;;;15.16;62.36
61676;BME280;47574;52.090;5.244;2023-02-19T01:19:59;101773.0;;;15.15;62.26
61676;BME280;47574;52.090;5.244;2023-02-19T01:23:12;101777.0;;;15.64;60.94
61676;BME280;47574;52.090;5.244;2023-02-19T01:24:48;101776.0;;;15.91;60.16
61676;BME280;47574;52.090;5.244;2023-02-19T01:26:27;101775.0;;;15.55;60.81
61676;BME280;47574;52.090;5.244;2023-02-19T01:29:41;101782.0;;;15.87;59.87
61676;BME280;47574;52.090;5.244;2023-02-19T01:31:20;101780.0;;;15.72;60.45
61676;BME280;47574;52.090;5.244;2023-02-19T01:32:57;101788.0;;;15.52;60.85
61676;BME280;47574;52.090;5.244;2023-02-19T01:34:33;101781.0;;;15.5;60.6
61676;BME280;47574;52.090;5.244;2023-02-19T01:37:47;101783.0;;;15.41;60.94
61676;BME280;47574;52.090;5.244;2023-02-19T01:39:25;101783.0;;;15.48;60.64
61676;BME280;47574;52.090;5.244;2023-02-19T01:41:04;101783.0;;;15.94;59.85
61676;BME280;47574;52.090;5.244;2023-02-19T01:45:27;101782.0;;;15.72;60.27
61676;BME280;47574;52.090;5.244;2023-02-19T01:47:04;101787.0;;;15.58;60.15
61676;BME280;47574;52.090;5.244;2023-02-19T01:50:18;101781.0;;;15.66;60.28
61676;BME280;47574;52.090;5.244;2023-02-19T01:51:58;101783.0;;;15.94;59.7
61676;BME280;47574;52.090;5.244;2023-02-19T01:53:40;101786.0;;;16.09;58.97
61676;BME280;47574;52.090;5.244;2023-02-19T01:56:56;101786.0;;;15.87;59.51
61676;BME280;47574;52.090;5.244;2023-02-19T01:58:35;101787.0;;;15.62;59.9
61676;BME280;47574;52.090;5.244;2023-02-19T02:00:16;101784.0;;;15.49;60.24
61676;BME280;47574;52.090;5.244;2023-02-19T02:01:52;101787.0;;;15.8;59.65
61676;BME280;47574;52.090;5.244;2023-02-19T02:05:09;101783.0;;;15.64;60.24
61676;BME280;47574;52.090;5.244;2023-02-19T02:06:52;101784.0;;;15.66;59.86
61676;BME280;47574;52.090;5.244;2023-02-19T02:10:19;101783.0;;;15.94;59.55
61676;BME280;47574;52.090;5.244;2023-02-19T02:11:56;101781.0;;;15.91;59.45
61676;BME280;47574;52.090;5.244;2023-02-19T02:13:33;101788.0;;;15.82;59.35
61676;BME280;47574;52.090;5.244;2023-02-19T02:15:12;101788.0;;;15.63;59.52
61676;BME280;47574;52.090;5.244;2023-02-19T02:16:54;101786.0;;;15.75;59.4
61676;BME280;47574;52.090;5.244;2023-02-19T02:18:43;101785.0;;;15.82;59.44
61676;BME280;47574;52.090;5.244;2023-02-19T02:20:34;101786.0;;;15.54;59.99
61676;BME280;47574;52.090;5.244;2023-02-19T02:24:24;101783.0;;;15.52;60.2
61676;BME280;47574;52.090;5.244;2023-02-19T02:26:30;101789.0;;;15.43;59.84
61676;BME280;47574;52.090;5.244;2023-02-19T02:28:39;101789.0;;;15.22;60.57
61676;BME280;47574;52.090;5.244;2023-02-19T02:30:32;101788.0;;;15.58;59.5
61676;BME280;47574;52.090;5.244;2023-02-19T02:32:15;101788.0;;;15.9;58.66
61676;BME280;47574;52.090;5.244;2023-02-19T02:34:00;101791.0;;;15.33;60.36
61676;BME280;47574;52.090;5.244;2023-02-19T02:35:43;101787.0;;;15.68;59.41
61676;BME280;47574;52.090;5.244;2023-02-19T02:37:22;101796.0;;;15.58;59.46
61676;BME280;47574;52.090;5.244;2023-02-19T02:40:46;101801.0;;;15.46;59.9
61676;BME280;47574;52.090;5.244;2023-02-19T02:42:26;101794.0;;;15.87;58.94
61676;BME280;47574;52.090;5.244;2023-02-19T02:44:03;101798.0;;;15.63;59.23
61676;BME280;47574;52.090;5.244;2023-02-19T02:45:40;101793.0;;;15.65;59.23
61676;BME280;47574;52.090;5.244;2023-02-19T02:49:23;101796.0;;;15.59;59.6
61676;BME280;47574;52.090;5.244;2023-02-19T02:51:07;101800.0;;;15.72;59.24
61676;BME280;47574;52.090;5.244;2023-02-19T02:55:09;101796.0;;;15.51;59.54
61676;BME280;47574;52.090;5.244;2023-02-19T02:56:48;101807.0;;;15.26;60.86
61676;BME280;47574;52.090;5.244;2023-02-19T02:58:27;101813.0;;;15.28;60.78
61676;BME280;47574;52.090;5.244;2023-02-19T03:02:21;101802.0;;;15.14;61.0
61676;BME280;47574;52.090;5.244;2023-02-19T03:04:02;101811.0;;;15.43;60.2
61676;BME280;47574;52.090;5.244;2023-02-19T03:06:00;101809.0;;;15.45;60.15
61676;BME280;47574;52.090;5.244;2023-02-19T03:07:42;101815.0;;;15.44;60.4
61676;BME280;47574;52.090;5.244;2023-02-19T03:09:25;101816.0;;;15.04;61.43
61676;BME280;47574;52.090;5.244;2023-02-19T03:19:24;101827.0;;;14.99;60.8
61676;BME280;47574;52.090;5.244;2023-02-19T03:22:43;101826.0;;;15.12;60.64
61676;BME280;47574;52.090;5.244;2023-02-19T03:26:10;101831.0;;;15.1;60.25
61676;BME280;47574;52.090;5.244;2023-02-19T03:27:48;101824.0;;;15.25;60.39
61676;BME280;47574;52.090;5.244;2023-02-19T03:31:08;101834.0;;;15.33;60.18
61676;BME280;47574;52.090;5.244;2023-02-19T03:32:48;101830.0;;;15.22;60.31
61676;BME280;47574;52.090;5.244;2023-02-19T03:34:32;101839.0;;;15.08;60.35
61676;BME280;47574;52.090;5.244;2023-02-19T03:36:12;101834.0;;;15.25;60.15
61676;BME280;47574;52.090;5.244;2023-02-19T03:38:01;101861.0;;;15.44;59.5
61676;BME280;47574;52.090;5.244;2023-02-19T03:41:24;101846.0;;;15.36;59.89
61676;BME280;47574;52.090;5.244;2023-02-19T03:43:14;101847.0;;;15.35;59.59
61676;BME280;47574;52.090;5.244;2023-02-19T03:45:04;101845.0;;;15.42;59.72
61676;BME280;47574;52.090;5.244;2023-02-19T03:46:54;101845.0;;;15.2;60.29
61676;BME280;47574;52.090;5.244;2023-02-19T03:48:35;101845.0;;;14.66;61.7
61676;BME280;47574;52.090;5.244;2023-02-19T03:52:01;101848.0;;;15.1;60.86
61676;BME280;47574;52.090;5.244;2023-02-19T03:53:50;101844.0;;;15.17;60.53
61676;BME280;47574;52.090;5.244;2023-02-19T03:55:32;101852.0;;;15.22;60.27
61676;BME280;47574;52.090;5.244;2023-02-19T03:57:19;101861.0;;;15.12;60.33
61676;BME280;47574;52.090;5.244;2023-02-19T03:59:00;101863.0;;;14.89;61.37
61676;BME280;47574;52.090;5.244;2023-02-19T04:02:29;101859.0;;;14.97;61.04
61676;BME280;47574;52.090;5.244;2023-02-19T04:04:14;101865.0;;;15.02;60.87
61676;BME280;47574;52.090;5.244;2023-02-19T04:05:58;101867.0;;;15.15;60.69
61676;BME280;47574;52.090;5.244;2023-02-19T04:07:40;101868.0;;;14.94;60.9
61676;BME280;47574;52.090;5.244;2023-02-19T04:09:21;101873.0;;;14.78;61.6
61676;BME280;47574;52.090;5.244;2023-02-19T04:12:43;101876.0;;;15.28;60.24
61676;BME280;47574;52.090;5.244;2023-02-19T04:16:06;101880.0;;;14.59;61.93
61676;BME280;47574;52.090;5.244;2023-02-19T04:17:59;101880.0;;;14.83;61.48
61676;BME280;47574;52.090;5.244;2023-02-19T04:21:18;101886.0;;;14.54;62.22
61676;BME280;47574;52.090;5.244;2023-02-19T04:22:57;101880.0;;;14.73;61.78
61676;BME280;47574;52.090;5.244;2023-02-19T04:24:37;101885.0;;;14.8;61.34
61676;BME280;47574;52.090;5.244;2023-02-19T04:26:19;101885.0;;;15.21;60.49
61676;BME280;47574;52.090;5.244;2023-02-19T04:29:35;101889.0;;;15.21;60.23
61676;BME280;47574;52.090;5.244;2023-02-19T04:31:12;101892.0;;;15.24;60.27
61676;BME280;47574;52.090;5.244;2023-02-19T04:32:49;101896.0;;;15.37;60.12
61676;BME280;47574;52.090;5.244;2023-02-19T04:34:26;101901.0;;;15.01;60.32
61676;BME280;47574;52.090;5.244;2023-02-19T04:37:42;101898.0;;;15.46;59.37
61676;BME280;47574;52.090;5.244;2023-02-19T04:39:19;101906.0;;;15.18;59.84
61676;BME280;47574;52.090;5.244;2023-02-19T04:40:56;101910.0;;;14.95;60.75
61676;BME280;47574;52.090;5.244;2023-02-19T04:44:10;101922.0;;;15.46;59.42
61676;BME280;47574;52.090;5.244;2023-02-19T04:45:47;101919.0;;;15.58;59.27
61676;BME280;47574;52.090;5.244;2023-02-19T04:47:24;101921.0;;;15.29;59.6
61676;BME280;47574;52.090;5.244;2023-02-19T04:49:00;101921.0;;;15.08;60.14
61676;BME280;47574;52.090;5.244;2023-02-19T04:52:14;101934.0;;;14.99;60.26
61676;BME280;47574;52.090;5.244;2023-02-19T04:53:51;101938.0;;;15.11;59.86
61676;BME280;47574;52.090;5.244;2023-02-19T04:55:27;101952.0;;;15.01;60.0
61676;BME280;47574;52.090;5.244;2023-02-19T04:58:42;101955.0;;;15.09;59.57
61676;BME280;47574;52.090;5.244;2023-02-19T05:00:19;101955.0;;;14.91;59.72
61676;BME280;47574;52.090;5.244;2023-02-19T05:01:57;101949.0;;;14.84;59.9
61676;BME280;47574;52.090;5.244;2023-02-19T05:05:11;101952.0;;;14.83;60.11
61676;BME280;47574;52.090;5.244;2023-02-19T05:06:48;101957.0;;;15.05;59.73
61676;BME280;47574;52.090;5.244;2023-02-19T05:08:24;101951.0;;;15.18;59.37
61676;BME280;47574;52.090;5.244;2023-02-19T05:10:01;101957.0;;;15.07;59.43
61676;BME280;47574;52.090;5.244;2023-02-19T05:13:14;101964.0;;;15.05;59.6
61676;BME280;47574;52.090;5.244;2023-02-19T05:14:50;101961.0;;;15.14;59.2
61676;BME280;47574;52.090;5.244;2023-02-19T05:16:27;101965.0;;;15.0;59.09
61676;BME280;47574;52.090;5.244;2023-02-19T05:19:40;101968.0;;;15.12;58.98
61676;BME280;47574;52.090;5.244;2023-02-19T05:21:17;101972.0;;;15.12;58.74
61676;BME280;47574;52.090;5.244;2023-02-19T05:22:53;101976.0;;;14.94;59.16
61676;BME280;47574;52.090;5.244;2023-02-19T05:26:11;101983.0;;;15.26;58.33
61676;BME280;47574;52.090;5.244;2023-02-19T05:27:48;101978.0;;;15.21;58.12
61676;BME280;47574;52.090;5.244;2023-02-19T05:29:24;101982.0;;;15.16;58.03
61676;BME280;47574;52.090;5.244;2023-02-19T05:31:04;101977.0;;;15.46;57.45
61676;BME280;47574;52.090;5.244;2023-02-19T05:34:18;101980.0;;;15.65;57.29
61676;BME280;47574;52.090;5.244;2023-02-19T05:35:55;101987.0;;;15.25;57.47
61676;BME280;47574;52.090;5.244;2023-02-19T05:37:31;101983.0;;;15.19;57.39
61676;BME280;47574;52.090;5.244;2023-02-19T05:40:47;101981.0;;;15.31;57.19
61676;BME280;47574;52.090;5.244;2023-02-19T05:42:24;101985.0;;;15.07;57.99
61676;BME280;47574;52.090;5.244;2023-02-19T05:44:00;101977.0;;;15.29;57.67
61676;BME280;47574;52.090;5.244;2023-02-19T05:45:38;101980.0;;;15.57;56.82
61676;BME280;47574;52.090;5.244;2023-02-19T05:48:52;101985.0;;;15.05;57.55
61676;BME280;47574;52.090;5.244;2023-02-19T05:50:31;101976.0;;;15.45;57.24
61676;BME280;47574;52.090;5.244;2023-02-19T05:52:08;101980.0;;;15.41;56.75
61676;BME280;47574;52.090;5.244;2023-02-19T05:55:21;101977.0;;;14.88;58.06
61676;BME280;47574;52.090;5.244;2023-02-19T05:56:58;101980.0;;;15.37;57.08
61676;BME280;47574;52.090;5.244;2023-02-19T05:58:34;101984.0;;;15.58;56.74
61676;BME280;47574;52.090;5.244;2023-02-19T06:00:13;102000.0;;;15.25;57.05
61676;BME280;47574;52.090;5.244;2023-02-19T06:03:29;102005.0;;;15.18;57.29
61676;BME280;47574;52.090;5.244;2023-02-19T06:05:06;101992.0;;;15.42;57.0
61676;BME280;47574;52.090;5.244;2023-02-19T06:06:43;101991.0;;;15.42;56.87
61676;BME280;47574;52.090;5.244;2023-02-19T06:09:57;101989.0;;;15.46;56.76
61676;BME280;47574;52.090;5.244;2023-02-19T06:11:34;101998.0;;;15.39;57.13
61676;BME280;47574;52.090;5.244;2023-02-19T06:13:11;102003.0;;;15.36;57.31
61676;BME280;47574;52.090;5.244;2023-02-19T06:14:47;102013.0;;;14.95;57.73
61676;BME280;47574;52.090;5.244;2023-02-19T06:18:02;102021.0;;;15.12;57.53
61676;BME280;47574;52.090;5.244;2023-02-19T06:19:38;102027.0;;;15.48;56.84
61676;BME280;47574;52.090;5.244;2023-02-19T06:21:15;102025.0;;;15.25;57.2
61676;BME280;47574;52.090;5.244;2023-02-19T06:24:30;102033.0;;;15.37;57.08
61676;BME280;47574;52.090;5.244;2023-02-19T06:26:08;102033.0;;;15.31;57.37
61676;BME280;47574;52.090;5.244;2023-02-19T06:27:46;102041.0;;;15.14;57.8
61676;BME280;47574;52.090;5.244;2023-02-19T06:31:00;102046.0;;;15.02;58.06
61676;BME280;47574;52.090;5.244;2023-02-19T06:32:37;102050.0;;;15.3;57.71
61676;BME280;47574;52.090;5.244;2023-02-19T06:34:15;102050.0;;;15.24;58.21
61676;BME280;47574;52.090;5.244;2023-02-19T06:35:51;102055.0;;;15.03;58.77
61676;BME280;47574;52.090;5.244;2023-02-19T06:39:05;102050.0;;;15.23;58.64
61676;BME280;47574;52.090;5.244;2023-02-19T06:40:42;102058.0;;;15.14;58.78
61676;BME280;47574;52.090;5.244;2023-02-19T06:42:18;102049.0;;;14.71;60.16
61676;BME280;47574;52.090;5.244;2023-02-19T06:45:32;102050.0;;;15.26;58.92
61676;BME280;47574;52.090;5.244;2023-02-19T06:47:09;102053.0;;;15.27;59.05
61676;BME280;47574;52.090;5.244;2023-02-19T06:48:46;102060.0;;;15.13;58.81
61676;BME280;47574;52.090;5.244;2023-02-19T06:50:23;102061.0;;;14.86;59.81
61676;BME280;47574;52.090;5.244;2023-02-19T06:53:37;102060.0;;;15.37;58.51
61676;BME280;47574;52.090;5.244;2023-02-19T06:55:14;102071.0;;;15.46;58.3
61676;BME280;47574;52.090;5.244;2023-02-19T06:56:51;102072.0;;;15.28;58.53
61676;BME280;47574;52.090;5.244;2023-02-19T07:00:07;102084.0;;;15.16;58.93
61676;BME280;47574;52.090;5.244;2023-02-19T07:01:44;102080.0;;;15.09;58.96
61676;BME280;47574;52.090;5.244;2023-02-19T07:03:21;102082.0;;;15.29;58.45
61676;BME280;47574;52.090;5.244;2023-02-19T07:06:34;102086.0;;;15.2;58.99
61676;BME280;47574;52.090;5.244;2023-02-19T07:08:11;102088.0;;;15.22;58.89
61676;BME280;47574;52.090;5.244;2023-02-19T07:09:48;102100.0;;;15.45;58.12
61676;BME280;47574;52.090;5.244;2023-02-19T07:11:25;102102.0;;;15.27;58.32
61676;BME280;47574;52.090;5.244;2023-02-19T07:14:40;102107.0;;;15.18;58.41
61676;BME280;47574;52.090;5.244;2023-02-19T07:16:17;102109.0;;;15.14;58.73
61676;BME280;47574;52.090;5.244;2023-02-19T07:17:54;102110.0;;;15.18;58.42
61676;BME280;47574;52.090;5.244;2023-02-19T07:21:10;102114.0;;;15.31;57.96
61676;BME280;47574;52.090;5.244;2023-02-19T07:22:48;102120.0;;;15.42;57.82
61676;BME280;47574;52.090;5.244;2023-02-19T07:24:25;102120.0;;;15.2;58.68
61676;BME280;47574;52.090;5.244;2023-02-19T07:26:03;102117.0;;;15.11;58.9
61676;BME280;47574;52.090;5.244;2023-02-19T07:29:18;102121.0;;;15.01;59.07
61676;BME280;47574;52.090;5.244;2023-02-19T07:30:59;102124.0;;;15.0;59.09
61676;BME280;47574;52.090;5.244;2023-02-19T07:32:39;102125.0;;;14.96;59.48
61676;BME280;47574;52.090;5.244;2023-02-19T07:34:16;102130.0;;;15.01;59.17
61676;BME280;47574;52.090;5.244;2023-02-19T07:39:05;102142.0;;;15.14;59.33
61676;BME280;47574;52.090;5.244;2023-02-19T07:40:49;102143.0;;;15.15;59.13
61676;BME280;47574;52.090;5.244;2023-02-19T07:44:02;102147.0;;;15.29;59.0
61676;BME280;47574;52.090;5.244;2023-02-19T07:45:39;102143.0;;;14.72;60.12
61676;BME280;47574;52.090;5.244;2023-02-19T07:47:15;102153.0;;;14.85;59.98
61676;BME280;47574;52.090;5.244;2023-02-19T07:50:27;102152.0;;;15.06;59.76
61676;BME280;47574;52.090;5.244;2023-02-19T07:52:03;102155.0;;;14.79;60.57
61676;BME280;47574;52.090;5.244;2023-02-19T07:53:39;102160.0;;;14.8;60.57
61676;BME280;47574;52.090;5.244;2023-02-19T07:55:16;102155.0;;;14.73;60.72
61676;BME280;47574;52.090;5.244;2023-02-19T07:58:29;102163.0;;;15.06;60.2
61676;BME280;47574;52.090;5.244;2023-02-19T08:00:08;102166.0;;;15.08;60.38
61676;BME280;47574;52.090;5.244;2023-02-19T08:03:00;102171.0;;;15.15;59.35
61676;BME280;47574;52.090;5.244;2023-02-19T08:04:38;102167.0;;;14.62;60.55
61676;BME280;47574;52.090;5.244;2023-02-19T08:06:15;102170.0;;;15.02;59.82
61676;BME280;47574;52.090;5.244;2023-02-19T08:07:53;102173.0;;;14.85;59.91
61676;BME280;47574;52.090;5.244;2023-02-19T08:13:28;102175.0;;;15.03;59.4
61676;BME280;47574;52.090;5.244;2023-02-19T08:15:06;102180.0;;;14.81;59.78
61676;BME280;47574;52.090;5.244;2023-02-19T08:16:47;102183.0;;;15.09;59.2
61676;BME280;47574;52.090;5.244;2023-02-19T08:21:41;102197.0;;;15.26;58.98
61676;BME280;47574;52.090;5.244;2023-02-19T08:23:20;102205.0;;;15.33;59.12
61676;BME280;47574;52.090;5.244;2023-02-19T08:24:56;102205.0;;;15.22;59.2
61676;BME280;47574;52.090;5.244;2023-02-19T08:28:10;102208.0;;;15.19;59.57
61676;BME280;47574;52.090;5.244;2023-02-19T08:29:47;102216.0;;;15.22;59.61
61676;BME280;47574;52.090;5.244;2023-02-19T08:31:23;102214.0;;;15.08;60.11
61676;BME280;47574;52.090;5.244;2023-02-19T08:33:00;102220.0;;;15.18;59.76
61676;BME280;47574;52.090;5.244;2023-02-19T08:36:13;102212.0;;;15.05;60.11
61676;BME280;47574;52.090;5.244;2023-02-19T08:37:50;102218.0;;;14.66;60.59
61676;BME280;47574;52.090;5.244;2023-02-19T08:39:31;102222.0;;;14.96;59.99
61676;BME280;47574;52.090;5.244;2023-02-19T08:42:47;102224.0;;;15.06;59.66
61676;BME280;47574;52.090;5.244;2023-02-19T08:44:24;102227.0;;;15.26;59.46
61676;BME280;47574;52.090;5.244;2023-02-19T08:46:00;102226.0;;;15.18;59.63
61676;BME280;47574;52.090;5.244;2023-02-19T08:47:38;102230.0;;;15.19;59.37
61676;BME280;47574;52.090;5.244;2023-02-19T08:50:53;102234.0;;;15.01;59.36
61676;BME280;47574;52.090;5.244;2023-02-19T08:52:31;102231.0;;;15.22;59.66
61676;BME280;47574;52.090;5.244;2023-02-19T08:54:07;102232.0;;;15.36;58.8
61676;BME280;47574;52.090;5.244;2023-02-19T08:57:20;102236.0;;;15.37;58.53
61676;BME280;47574;52.090;5.244;2023-02-19T08:58:56;102231.0;;;15.49;58.09
61676;BME280;47574;52.090;5.244;2023-02-19T09:00:32;102234.0;;;15.44;58.22
61676;BME280;47574;52.090;5.244;2023-02-19T09:02:08;102237.0;;;15.4;58.61
61676;BME280;47574;52.090;5.244;2023-02-19T09:05:20;102237.0;;;15.23;58.48
61676;BME280;47574;52.090;5.244;2023-02-19T09:06:57;102236.0;;;15.16;58.78
61676;BME280;47574;52.090;5.244;2023-02-19T09:08:33;102235.0;;;15.42;58.69
61676;BME280;47574;52.090;5.244;2023-02-19T09:11:48;102236.0;;;15.41;58.47
61676;BME280;47574;52.090;5.244;2023-02-19T09:13:26;102237.0;;;15.22;58.7
61676;BME280;47574;52.090;5.244;2023-02-19T09:15:03;102227.0;;;15.2;58.66
61676;BME280;47574;52.090;5.244;2023-02-19T09:18:16;102246.0;;;14.95;59.37
61676;BME280;47574;52.090;5.244;2023-02-19T09:19:53;102255.0;;;14.65;59.97
61676;BME280;47574;52.090;5.244;2023-02-19T09:21:30;102255.0;;;15.2;59.07
61676;BME280;47574;52.090;5.244;2023-02-19T09:23:06;102248.0;;;15.38;58.81
61676;BME280;47574;52.090;5.244;2023-02-19T09:26:19;102255.0;;;15.43;58.87
61676;BME280;47574;52.090;5.244;2023-02-19T09:27:56;102253.0;;;15.32;58.6
61676;BME280;47574;52.090;5.244;2023-02-19T09:29:33;102259.0;;;15.36;58.52
61676;BME280;47574;52.090;5.244;2023-02-19T09:32:50;102271.0;;;15.38;58.22
61676;BME280;47574;52.090;5.244;2023-02-19T09:34:27;102276.0;;;15.27;58.16
61676;BME280;47574;52.090;5.244;2023-02-19T09:36:05;102290.0;;;15.47;57.83
61676;BME280;47574;52.090;5.244;2023-02-19T09:37:42;102300.0;;;15.0;58.2
61676;BME280;47574;52.090;5.244;2023-02-19T09:40:57;102308.0;;;15.36;58.16
61676;BME280;47574;52.090;5.244;2023-02-19T09:42:41;102308.0;;;15.13;58.11
61676;BME280;47574;52.090;5.244;2023-02-19T09:44:22;102311.0;;;15.35;57.79
61676;BME280;47574;52.090;5.244;2023-02-19T09:48:04;102306.0;;;15.53;57.75
61676;BME280;47574;52.090;5.244;2023-02-19T09:49:50;102318.0;;;15.73;57.28
61676;BME280;47574;52.090;5.244;2023-02-19T09:51:31;102321.0;;;15.59;56.96
61676;BME280;47574;52.090;5.244;2023-02-19T09:53:14;102321.0;;;15.39;57.39
61676;BME280;47574;52.090;5.244;2023-02-19T09:55:00;102322.0;;;15.55;57.2
61676;BME280;47574;52.090;5.244;2023-02-19T09:56:37;102330.0;;;15.23;58.37
61676;BME280;47574;52.090;5.244;2023-02-19T10:00:05;102337.0;;;15.66;57.28
61676;BME280;47574;52.090;5.244;2023-02-19T10:02:02;102340.0;;;15.44;56.92
61676;BME280;47574;52.090;5.244;2023-02-19T10:03:44;102338.0;;;15.5;56.83
61676;BME280;47574;52.090;5.244;2023-02-19T10:05:22;102342.0;;;15.54;57.41
61676;BME280;47574;52.090;5.244;2023-02-19T10:07:03;102341.0;;;15.45;57.8
61676;BME280;47574;52.090;5.244;2023-02-19T10:10:22;102346.0;;;15.27;57.65
61676;BME280;47574;52.090;5.244;2023-02-19T10:12:12;102355.0;;;15.37;57.16
61676;BME280;47574;52.090;5.244;2023-02-19T10:13:52;102355.0;;;15.63;57.03
61676;BME280;47574;52.090;5.244;2023-02-19T10:15:45;102361.0;;;15.4;57.3
61676;BME280;47574;52.090;5.244;2023-02-19T10:19:08;102361.0;;;16.02;56.07
61676;BME280;47574;52.090;5.244;2023-02-19T10:20:46;102363.0;;;15.87;56.25
61676;BME280;47574;52.090;5.244;2023-02-19T10:22:25;102368.0;;;15.69;56.29
61676;BME280;47574;52.090;5.244;2023-02-19T10:24:04;102374.0;;;15.81;56.1
61676;BME280;47574;52.090;5.244;2023-02-19T10:27:25;102375.0;;;15.81;56.08
61676;BME280;47574;52.090;5.244;2023-02-19T10:29:03;102366.0;;;15.55;56.07
61676;BME280;47574;52.090;5.244;2023-02-19T10:30:41;102378.0;;;15.78;56.37
61676;BME280;47574;52.090;5.244;2023-02-19T10:32:22;102386.0;;;15.9;56.11
61676;BME280;47574;52.090;5.244;2023-02-19T10:35:51;102393.0;;;16.06;55.91
61676;BME280;47574;52.090;5.244;2023-02-19T10:37:31;102396.0;;;16.23;55.18
61676;BME280;47574;52.090;5.244;2023-02-19T10:39:32;102394.0;;;15.76;55.73
61676;BME280;47574;52.090;5.244;2023-02-19T10:41:16;102399.0;;;15.87;55.34
61676;BME280;47574;52.090;5.244;2023-02-19T10:42:56;102400.0;;;16.18;55.09
61676;BME280;47574;52.090;5.244;2023-02-19T10:46:21;102396.0;;;15.78;56.01
61676;BME280;47574;52.090;5.244;2023-02-19T10:49:38;102392.0;;;15.75;56.04
61676;BME280;47574;52.090;5.244;2023-02-19T10:51:26;102395.0;;;15.33;57.12
61676;BME280;47574;52.090;5.244;2023-02-19T10:53:19;102395.0;;;15.71;56.54
61676;BME280;47574;52.090;5.244;2023-02-19T10:57:15;102404.0;;;15.57;56.75
61676;BME280;47574;52.090;5.244;2023-02-19T10:59:14;102403.0;;;15.43;57.17
61676;BME280;47574;52.090;5.244;2023-02-19T11:01:09;102400.0;;;15.69;57.26
61676;BME280;47574;52.090;5.244;2023-02-19T11:03:26;102397.0;;;15.74;56.47
61676;BME280;47574;52.090;5.244;2023-02-19T11:05:14;102389.0;;;15.73;55.85
61676;BME280;47574;52.090;5.244;2023-02-19T11:06:52;102390.0;;;15.85;56.35
61676;BME280;47574;52.090;5.244;2023-02-19T11:08:32;102389.0;;;15.76;56.5
61676;BME280;47574;52.090;5.244;2023-02-19T11:10:26;102386.0;;;15.7;56.46
61676;BME280;47574;52.090;5.244;2023-02-19T11:12:05;102385.0;;;15.51;57.12
61676;BME280;47574;52.090;5.244;2023-02-19T11:15:21;102381.0;;;15.43;57.41
61676;BME280;47574;52.090;5.244;2023-02-19T11:17:00;102388.0;;;15.68;57.48
61676;BME280;47574;52.090;5.244;2023-02-19T11:18:39;102397.0;;;15.45;57.36
61676;BME280;47574;52.090;5.244;2023-02-19T11:20:16;102401.0;;;15.55;57.82
61676;BME280;47574;52.090;5.244;2023-02-19T11:23:33;102406.0;;;15.62;57.84
61676;BME280;47574;52.090;5.244;2023-02-19T11:25:19;102408.99999999999;;;15.44;57.75
61676;BME280;47574;52.090;5.244;2023-02-19T11:26:57;102414.00000000001;;;14.85;58.45
61676;BME280;47574;52.090;5.244;2023-02-19T11:30:31;102417.0;;;14.88;58.24
61676;BME280;47574;52.090;5.244;2023-02-19T11:32:23;102424.0;;;15.19;57.73